sensor_id;sensor_type;location;lat;lon;timestamp;temperature;humidity
47310;DHT22;33046;52.270;6.832;2022-11-20T00:01:21;1.10;95.50
47310;DHT22;33046;52.270;6.832;2022-11-20T00:03:28;1.10;95.50
47310;DHT22;33046;52.270;6.832;2022-11-20T00:05:35;1.10;95.30
47310;DHT22;33046;52.270;6.832;2022-11-20T00:07:43;1.00;95.50
47310;DHT22;33046;52.270;6.832;2022-11-20T00:09:50;1.00;95.60
47310;DHT22;33046;52.270;6.832;2022-11-20T00:11:56;1.00;95.60
47310;DHT22;33046;52.270;6.832;2022-11-20T00:14:03;1.00;95.80
47310;DHT22;33046;52.270;6.832;2022-11-20T00:16:11;1.00;95.80
47310;DHT22;33046;52.270;6.832;2022-11-20T00:18:18;1.00;96.20
47310;DHT22;33046;52.270;6.832;2022-11-20T00:20:25;1.00;96.00
47310;DHT22;33046;52.270;6.832;2022-11-20T00:22:32;1.00;95.90
47310;DHT22;33046;52.270;6.832;2022-11-20T00:24:40;0.90;95.70
47310;DHT22;33046;52.270;6.832;2022-11-20T00:26:48;1.00;95.70
47310;DHT22;33046;52.270;6.832;2022-11-20T00:28:57;1.00;95.50
47310;DHT22;33046;52.270;6.832;2022-11-20T00:31:06;0.90;95.40
47310;DHT22;33046;52.270;6.832;2022-11-20T00:33:13;0.90;95.20
47310;DHT22;33046;52.270;6.832;2022-11-20T00:35:20;0.90;95.30
47310;DHT22;33046;52.270;6.832;2022-11-20T00:37:27;0.90;95.40
47310;DHT22;33046;52.270;6.832;2022-11-20T00:39:33;0.90;95.40
47310;DHT22;33046;52.270;6.832;2022-11-20T00:41:42;0.90;95.30
47310;DHT22;33046;52.270;6.832;2022-11-20T00:43:49;0.90;95.50
47310;DHT22;33046;52.270;6.832;2022-11-20T00:45:57;0.90;95.40
47310;DHT22;33046;52.270;6.832;2022-11-20T00:48:04;0.80;95.20
47310;DHT22;33046;52.270;6.832;2022-11-20T00:50:11;0.80;95.30
47310;DHT22;33046;52.270;6.832;2022-11-20T00:52:17;0.80;95.60
47310;DHT22;33046;52.270;6.832;2022-11-20T00:54:24;0.80;95.80
47310;DHT22;33046;52.270;6.832;2022-11-20T00:56:31;0.80;95.90
47310;DHT22;33046;52.270;6.832;2022-11-20T00:58:40;0.70;95.80
47310;DHT22;33046;52.270;6.832;2022-11-20T01:00:48;0.80;95.80
47310;DHT22;33046;52.270;6.832;2022-11-20T01:02:55;0.70;95.50
47310;DHT22;33046;52.270;6.832;2022-11-20T01:05:03;0.70;95.70
47310;DHT22;33046;52.270;6.832;2022-11-20T01:07:09;0.70;95.60
47310;DHT22;33046;52.270;6.832;2022-11-20T01:09:16;0.70;95.50
47310;DHT22;33046;52.270;6.832;2022-11-20T01:11:25;0.70;95.40
47310;DHT22;33046;52.270;6.832;2022-11-20T01:13:32;0.70;95.60
47310;DHT22;33046;52.270;6.832;2022-11-20T01:15:40;0.70;95.70
47310;DHT22;33046;52.270;6.832;2022-11-20T01:17:47;0.70;95.40
47310;DHT22;33046;52.270;6.832;2022-11-20T01:19:54;0.70;95.20
47310;DHT22;33046;52.270;6.832;2022-11-20T01:22:00;0.60;95.30
47310;DHT22;33046;52.270;6.832;2022-11-20T01:24:10;0.60;95.20
47310;DHT22;33046;52.270;6.832;2022-11-20T01:26:19;0.60;95.20
47310;DHT22;33046;52.270;6.832;2022-11-20T01:28:26;0.60;95.10
47310;DHT22;33046;52.270;6.832;2022-11-20T01:30:33;0.60;95.20
47310;DHT22;33046;52.270;6.832;2022-11-20T01:32:41;0.60;95.20
47310;DHT22;33046;52.270;6.832;2022-11-20T01:34:48;0.60;95.20
47310;DHT22;33046;52.270;6.832;2022-11-20T01:36:54;0.60;95.10
47310;DHT22;33046;52.270;6.832;2022-11-20T01:39:04;0.60;95.20
47310;DHT22;33046;52.270;6.832;2022-11-20T01:41:12;0.60;95.20
47310;DHT22;33046;52.270;6.832;2022-11-20T01:43:20;0.50;95.40
47310;DHT22;33046;52.270;6.832;2022-11-20T01:46:05;0.60;95.70
47310;DHT22;33046;52.270;6.832;2022-11-20T01:48:16;0.50;95.60
47310;DHT22;33046;52.270;6.832;2022-11-20T01:50:25;0.50;95.70
47310;DHT22;33046;52.270;6.832;2022-11-20T01:52:36;0.50;95.60
47310;DHT22;33046;52.270;6.832;2022-11-20T01:54:46;0.50;95.40
47310;DHT22;33046;52.270;6.832;2022-11-20T01:56:56;0.50;95.40
47310;DHT22;33046;52.270;6.832;2022-11-20T01:59:05;0.50;95.30
47310;DHT22;33046;52.270;6.832;2022-11-20T02:01:13;0.50;95.40
47310;DHT22;33046;52.270;6.832;2022-11-20T02:03:21;0.50;95.40
47310;DHT22;33046;52.270;6.832;2022-11-20T02:05:32;0.50;95.40
47310;DHT22;33046;52.270;6.832;2022-11-20T02:07:40;0.50;95.40
47310;DHT22;33046;52.270;6.832;2022-11-20T02:09:47;0.50;95.30
47310;DHT22;33046;52.270;6.832;2022-11-20T02:11:55;0.40;95.30
47310;DHT22;33046;52.270;6.832;2022-11-20T02:14:02;0.40;95.50
47310;DHT22;33046;52.270;6.832;2022-11-20T02:16:11;0.40;95.50
47310;DHT22;33046;52.270;6.832;2022-11-20T02:18:21;0.40;95.70
47310;DHT22;33046;52.270;6.832;2022-11-20T02:20:28;0.40;95.70
47310;DHT22;33046;52.270;6.832;2022-11-20T02:22:39;0.40;95.60
47310;DHT22;33046;52.270;6.832;2022-11-20T02:24:50;0.40;95.80
47310;DHT22;33046;52.270;6.832;2022-11-20T02:26:59;0.40;95.80
47310;DHT22;33046;52.270;6.832;2022-11-20T02:29:07;0.40;95.90
47310;DHT22;33046;52.270;6.832;2022-11-20T02:31:14;0.40;95.70
47310;DHT22;33046;52.270;6.832;2022-11-20T02:33:21;0.30;95.50
47310;DHT22;33046;52.270;6.832;2022-11-20T02:35:42;0.30;95.40
47310;DHT22;33046;52.270;6.832;2022-11-20T02:37:53;0.30;95.40
47310;DHT22;33046;52.270;6.832;2022-11-20T02:40:01;0.30;95.30
47310;DHT22;33046;52.270;6.832;2022-11-20T02:42:08;0.20;94.70
47310;DHT22;33046;52.270;6.832;2022-11-20T02:44:15;0.20;94.90
47310;DHT22;33046;52.270;6.832;2022-11-20T02:46:22;0.20;95.20
47310;DHT22;33046;52.270;6.832;2022-11-20T02:48:28;0.20;95.40
47310;DHT22;33046;52.270;6.832;2022-11-20T02:50:39;0.20;95.40
47310;DHT22;33046;52.270;6.832;2022-11-20T02:52:46;0.20;95.50
47310;DHT22;33046;52.270;6.832;2022-11-20T02:54:53;0.20;95.70
47310;DHT22;33046;52.270;6.832;2022-11-20T02:57:01;0.10;95.40
47310;DHT22;33046;52.270;6.832;2022-11-20T02:59:08;0.10;95.30
47310;DHT22;33046;52.270;6.832;2022-11-20T03:01:14;0.10;95.30
47310;DHT22;33046;52.270;6.832;2022-11-20T03:03:21;0.10;95.30
47310;DHT22;33046;52.270;6.832;2022-11-20T03:05:28;0.10;95.30
47310;DHT22;33046;52.270;6.832;2022-11-20T03:07:35;0.10;95.20
47310;DHT22;33046;52.270;6.832;2022-11-20T03:09:41;0.10;95.40
47310;DHT22;33046;52.270;6.832;2022-11-20T03:11:48;0.10;95.20
47310;DHT22;33046;52.270;6.832;2022-11-20T03:13:56;0.00;95.30
47310;DHT22;33046;52.270;6.832;2022-11-20T03:16:08;0.10;95.20
47310;DHT22;33046;52.270;6.832;2022-11-20T03:18:15;0.00;95.30
47310;DHT22;33046;52.270;6.832;2022-11-20T03:20:22;0.00;95.30
47310;DHT22;33046;52.270;6.832;2022-11-20T03:22:29;0.00;95.40
47310;DHT22;33046;52.270;6.832;2022-11-20T03:24:36;0.00;95.40
47310;DHT22;33046;52.270;6.832;2022-11-20T03:26:43;0.00;95.30
47310;DHT22;33046;52.270;6.832;2022-11-20T03:28:51;0.00;95.50
47310;DHT22;33046;52.270;6.832;2022-11-20T03:31:05;0.00;95.20
47310;DHT22;33046;52.270;6.832;2022-11-20T03:33:12;0.00;95.80
47310;DHT22;33046;52.270;6.832;2022-11-20T03:35:19;0.00;95.60
47310;DHT22;33046;52.270;6.832;2022-11-20T03:37:25;0.00;95.30
47310;DHT22;33046;52.270;6.832;2022-11-20T03:39:32;0.00;95.40
47310;DHT22;33046;52.270;6.832;2022-11-20T03:41:40;0.00;95.70
47310;DHT22;33046;52.270;6.832;2022-11-20T03:43:48;-0.10;95.20
47310;DHT22;33046;52.270;6.832;2022-11-20T03:45:55;-0.10;95.40
47310;DHT22;33046;52.270;6.832;2022-11-20T03:48:04;-0.10;95.40
47310;DHT22;33046;52.270;6.832;2022-11-20T03:50:12;-0.10;95.10
47310;DHT22;33046;52.270;6.832;2022-11-20T03:52:19;-0.10;95.30
47310;DHT22;33046;52.270;6.832;2022-11-20T03:54:26;-0.10;95.30
47310;DHT22;33046;52.270;6.832;2022-11-20T03:56:35;-0.10;95.40
47310;DHT22;33046;52.270;6.832;2022-11-20T03:58:42;-0.10;95.40
47310;DHT22;33046;52.270;6.832;2022-11-20T04:00:49;-0.10;95.30
47310;DHT22;33046;52.270;6.832;2022-11-20T04:02:57;-0.10;95.20
47310;DHT22;33046;52.270;6.832;2022-11-20T04:05:06;-0.20;95.20
47310;DHT22;33046;52.270;6.832;2022-11-20T04:07:13;-0.20;95.30
47310;DHT22;33046;52.270;6.832;2022-11-20T04:09:20;-0.20;95.10
47310;DHT22;33046;52.270;6.832;2022-11-20T04:11:29;-0.20;95.00
47310;DHT22;33046;52.270;6.832;2022-11-20T04:13:36;-0.20;94.90
47310;DHT22;33046;52.270;6.832;2022-11-20T04:15:43;-0.20;94.90
47310;DHT22;33046;52.270;6.832;2022-11-20T04:17:49;-0.20;95.00
47310;DHT22;33046;52.270;6.832;2022-11-20T04:19:56;-0.20;95.20
47310;DHT22;33046;52.270;6.832;2022-11-20T04:22:04;-0.20;95.10
47310;DHT22;33046;52.270;6.832;2022-11-20T04:24:11;-0.30;95.20
47310;DHT22;33046;52.270;6.832;2022-11-20T04:26:18;-0.30;95.40
47310;DHT22;33046;52.270;6.832;2022-11-20T04:28:25;-0.30;95.60
47310;DHT22;33046;52.270;6.832;2022-11-20T04:30:32;-0.30;95.30
47310;DHT22;33046;52.270;6.832;2022-11-20T04:32:39;-0.40;95.20
47310;DHT22;33046;52.270;6.832;2022-11-20T04:34:45;-0.40;95.10
47310;DHT22;33046;52.270;6.832;2022-11-20T04:36:52;-0.40;95.30
47310;DHT22;33046;52.270;6.832;2022-11-20T04:39:02;-0.40;95.20
47310;DHT22;33046;52.270;6.832;2022-11-20T04:41:14;-0.40;95.10
47310;DHT22;33046;52.270;6.832;2022-11-20T04:43:21;-0.40;95.30
47310;DHT22;33046;52.270;6.832;2022-11-20T04:45:28;-0.40;95.50
47310;DHT22;33046;52.270;6.832;2022-11-20T04:47:35;-0.40;95.50
47310;DHT22;33046;52.270;6.832;2022-11-20T04:49:41;-0.40;95.00
47310;DHT22;33046;52.270;6.832;2022-11-20T04:51:48;-0.40;95.10
47310;DHT22;33046;52.270;6.832;2022-11-20T04:53:55;-0.40;95.00
47310;DHT22;33046;52.270;6.832;2022-11-20T04:56:05;-0.40;94.90
47310;DHT22;33046;52.270;6.832;2022-11-20T04:58:12;-0.40;95.20
47310;DHT22;33046;52.270;6.832;2022-11-20T05:00:19;-0.40;95.20
47310;DHT22;33046;52.270;6.832;2022-11-20T05:02:26;-0.40;95.10
47310;DHT22;33046;52.270;6.832;2022-11-20T05:04:33;-0.40;95.30
47310;DHT22;33046;52.270;6.832;2022-11-20T05:06:39;-0.40;95.10
47310;DHT22;33046;52.270;6.832;2022-11-20T05:08:47;-0.40;95.20
47310;DHT22;33046;52.270;6.832;2022-11-20T05:10:53;-0.40;95.00
47310;DHT22;33046;52.270;6.832;2022-11-20T05:13:01;-0.40;94.90
47310;DHT22;33046;52.270;6.832;2022-11-20T05:15:09;-0.40;94.90
47310;DHT22;33046;52.270;6.832;2022-11-20T05:17:16;-0.50;95.00
47310;DHT22;33046;52.270;6.832;2022-11-20T05:19:23;-0.40;95.00
47310;DHT22;33046;52.270;6.832;2022-11-20T05:21:30;-0.50;94.90
47310;DHT22;33046;52.270;6.832;2022-11-20T05:23:38;-0.50;94.80
47310;DHT22;33046;52.270;6.832;2022-11-20T05:25:45;-0.50;94.80
47310;DHT22;33046;52.270;6.832;2022-11-20T05:27:52;-0.50;94.90
47310;DHT22;33046;52.270;6.832;2022-11-20T05:30:00;-0.50;95.00
47310;DHT22;33046;52.270;6.832;2022-11-20T05:32:07;-0.50;94.90
47310;DHT22;33046;52.270;6.832;2022-11-20T05:34:14;-0.50;95.00
47310;DHT22;33046;52.270;6.832;2022-11-20T05:36:22;-0.50;95.00
47310;DHT22;33046;52.270;6.832;2022-11-20T05:38:29;-0.50;94.70
47310;DHT22;33046;52.270;6.832;2022-11-20T05:40:36;-0.50;94.80
47310;DHT22;33046;52.270;6.832;2022-11-20T05:42:43;-0.50;94.70
47310;DHT22;33046;52.270;6.832;2022-11-20T05:44:50;-0.50;94.50
47310;DHT22;33046;52.270;6.832;2022-11-20T05:46:58;-0.60;94.50
47310;DHT22;33046;52.270;6.832;2022-11-20T05:49:05;-0.50;94.50
47310;DHT22;33046;52.270;6.832;2022-11-20T05:51:13;-0.50;94.60
47310;DHT22;33046;52.270;6.832;2022-11-20T05:53:20;-0.50;94.70
47310;DHT22;33046;52.270;6.832;2022-11-20T05:55:27;-0.60;94.90
47310;DHT22;33046;52.270;6.832;2022-11-20T05:57:34;-0.60;94.80
47310;DHT22;33046;52.270;6.832;2022-11-20T05:59:41;-0.60;95.00
47310;DHT22;33046;52.270;6.832;2022-11-20T06:01:48;-0.60;95.10
47310;DHT22;33046;52.270;6.832;2022-11-20T06:03:56;-0.60;95.20
47310;DHT22;33046;52.270;6.832;2022-11-20T06:06:04;-0.60;95.30
47310;DHT22;33046;52.270;6.832;2022-11-20T06:08:11;-0.60;95.40
47310;DHT22;33046;52.270;6.832;2022-11-20T06:10:18;-0.60;95.20
47310;DHT22;33046;52.270;6.832;2022-11-20T06:12:24;-0.60;95.20
47310;DHT22;33046;52.270;6.832;2022-11-20T06:14:31;-0.60;95.20
47310;DHT22;33046;52.270;6.832;2022-11-20T06:16:38;-0.60;95.20
47310;DHT22;33046;52.270;6.832;2022-11-20T06:18:45;-0.60;95.30
47310;DHT22;33046;52.270;6.832;2022-11-20T06:21:01;-0.60;95.30
47310;DHT22;33046;52.270;6.832;2022-11-20T06:23:07;-0.60;95.30
47310;DHT22;33046;52.270;6.832;2022-11-20T06:25:14;-0.60;95.50
47310;DHT22;33046;52.270;6.832;2022-11-20T06:27:21;-0.60;95.40
47310;DHT22;33046;52.270;6.832;2022-11-20T06:29:28;-0.60;95.30
47310;DHT22;33046;52.270;6.832;2022-11-20T06:31:49;-0.60;95.10
47310;DHT22;33046;52.270;6.832;2022-11-20T06:33:55;-0.60;95.30
47310;DHT22;33046;52.270;6.832;2022-11-20T06:36:03;-0.60;95.30
47310;DHT22;33046;52.270;6.832;2022-11-20T06:38:14;-0.70;95.00
47310;DHT22;33046;52.270;6.832;2022-11-20T06:40:21;-0.70;95.00
47310;DHT22;33046;52.270;6.832;2022-11-20T06:42:28;-0.70;95.00
47310;DHT22;33046;52.270;6.832;2022-11-20T06:44:35;-0.70;95.10
47310;DHT22;33046;52.270;6.832;2022-11-20T06:46:41;-0.70;95.00
47310;DHT22;33046;52.270;6.832;2022-11-20T06:48:50;-0.70;95.30
47310;DHT22;33046;52.270;6.832;2022-11-20T06:50:57;-0.70;95.10
47310;DHT22;33046;52.270;6.832;2022-11-20T06:53:04;-0.70;95.20
47310;DHT22;33046;52.270;6.832;2022-11-20T06:55:11;-0.70;95.20
47310;DHT22;33046;52.270;6.832;2022-11-20T06:57:18;-0.70;95.20
47310;DHT22;33046;52.270;6.832;2022-11-20T06:59:25;-0.70;95.10
47310;DHT22;33046;52.270;6.832;2022-11-20T07:01:32;-0.70;95.30
47310;DHT22;33046;52.270;6.832;2022-11-20T07:03:39;-0.70;95.30
47310;DHT22;33046;52.270;6.832;2022-11-20T07:05:47;-0.70;95.40
47310;DHT22;33046;52.270;6.832;2022-11-20T07:07:55;-0.70;95.10
47310;DHT22;33046;52.270;6.832;2022-11-20T07:10:02;-0.70;95.10
47310;DHT22;33046;52.270;6.832;2022-11-20T07:12:09;-0.70;95.30
47310;DHT22;33046;52.270;6.832;2022-11-20T07:14:16;-0.70;95.60
47310;DHT22;33046;52.270;6.832;2022-11-20T07:16:23;-0.70;95.40
47310;DHT22;33046;52.270;6.832;2022-11-20T07:18:29;-0.70;95.70
47310;DHT22;33046;52.270;6.832;2022-11-20T07:20:36;-0.70;95.70
47310;DHT22;33046;52.270;6.832;2022-11-20T07:22:44;-0.70;95.80
47310;DHT22;33046;52.270;6.832;2022-11-20T07:24:51;-0.60;95.80
47310;DHT22;33046;52.270;6.832;2022-11-20T07:26:58;-0.60;95.70
47310;DHT22;33046;52.270;6.832;2022-11-20T07:29:05;-0.60;95.70
47310;DHT22;33046;52.270;6.832;2022-11-20T07:31:12;-0.60;95.80
47310;DHT22;33046;52.270;6.832;2022-11-20T07:33:21;-0.60;95.90
47310;DHT22;33046;52.270;6.832;2022-11-20T07:35:28;-0.60;96.10
47310;DHT22;33046;52.270;6.832;2022-11-20T07:37:35;-0.60;96.00
47310;DHT22;33046;52.270;6.832;2022-11-20T07:39:43;-0.50;95.90
47310;DHT22;33046;52.270;6.832;2022-11-20T07:41:50;-0.60;96.10
47310;DHT22;33046;52.270;6.832;2022-11-20T07:43:56;-0.50;95.80
47310;DHT22;33046;52.270;6.832;2022-11-20T07:46:03;-0.50;95.70
47310;DHT22;33046;52.270;6.832;2022-11-20T07:48:10;-0.50;95.90
47310;DHT22;33046;52.270;6.832;2022-11-20T07:50:18;-0.50;96.00
47310;DHT22;33046;52.270;6.832;2022-11-20T07:52:25;-0.50;96.20
47310;DHT22;33046;52.270;6.832;2022-11-20T07:54:31;-0.50;96.40
47310;DHT22;33046;52.270;6.832;2022-11-20T07:56:39;-0.50;96.40
47310;DHT22;33046;52.270;6.832;2022-11-20T07:58:46;-0.50;96.70
47310;DHT22;33046;52.270;6.832;2022-11-20T08:00:53;-0.50;96.60
47310;DHT22;33046;52.270;6.832;2022-11-20T08:03:02;-0.50;96.80
47310;DHT22;33046;52.270;6.832;2022-11-20T08:05:10;-0.40;96.90
47310;DHT22;33046;52.270;6.832;2022-11-20T08:07:17;-0.40;97.00
47310;DHT22;33046;52.270;6.832;2022-11-20T08:09:23;-0.40;97.00
47310;DHT22;33046;52.270;6.832;2022-11-20T08:11:30;-0.30;97.20
47310;DHT22;33046;52.270;6.832;2022-11-20T08:13:38;-0.30;97.50
47310;DHT22;33046;52.270;6.832;2022-11-20T08:15:48;-0.30;97.50
47310;DHT22;33046;52.270;6.832;2022-11-20T08:18:00;-0.30;97.60
47310;DHT22;33046;52.270;6.832;2022-11-20T08:20:21;-0.20;97.70
47310;DHT22;33046;52.270;6.832;2022-11-20T08:22:28;-0.20;97.80
47310;DHT22;33046;52.270;6.832;2022-11-20T08:24:35;-0.10;97.80
47310;DHT22;33046;52.270;6.832;2022-11-20T08:26:42;-0.10;97.90
47310;DHT22;33046;52.270;6.832;2022-11-20T08:28:53;-0.10;98.00
47310;DHT22;33046;52.270;6.832;2022-11-20T08:31:01;-0.10;98.00
47310;DHT22;33046;52.270;6.832;2022-11-20T08:33:08;0.00;98.00
47310;DHT22;33046;52.270;6.832;2022-11-20T08:35:15;0.00;98.20
47310;DHT22;33046;52.270;6.832;2022-11-20T08:37:22;0.00;98.20
47310;DHT22;33046;52.270;6.832;2022-11-20T08:39:29;0.10;98.30
47310;DHT22;33046;52.270;6.832;2022-11-20T08:41:36;0.10;98.30
47310;DHT22;33046;52.270;6.832;2022-11-20T08:43:42;0.10;98.50
47310;DHT22;33046;52.270;6.832;2022-11-20T08:45:50;0.20;98.60
47310;DHT22;33046;52.270;6.832;2022-11-20T08:48:00;0.20;98.50
47310;DHT22;33046;52.270;6.832;2022-11-20T08:50:08;0.30;98.70
47310;DHT22;33046;52.270;6.832;2022-11-20T08:52:14;0.30;98.60
47310;DHT22;33046;52.270;6.832;2022-11-20T08:54:21;0.30;98.60
47310;DHT22;33046;52.270;6.832;2022-11-20T08:56:28;0.30;98.80
47310;DHT22;33046;52.270;6.832;2022-11-20T08:58:35;0.40;98.90
47310;DHT22;33046;52.270;6.832;2022-11-20T09:00:56;0.40;98.80
47310;DHT22;33046;52.270;6.832;2022-11-20T09:03:02;0.40;98.70
47310;DHT22;33046;52.270;6.832;2022-11-20T09:05:09;0.50;98.90
47310;DHT22;33046;52.270;6.832;2022-11-20T09:07:16;0.60;99.00
47310;DHT22;33046;52.270;6.832;2022-11-20T09:09:23;0.60;99.10
47310;DHT22;33046;52.270;6.832;2022-11-20T09:11:30;0.60;99.10
47310;DHT22;33046;52.270;6.832;2022-11-20T09:13:37;0.60;99.20
47310;DHT22;33046;52.270;6.832;2022-11-20T09:15:44;0.70;99.10
47310;DHT22;33046;52.270;6.832;2022-11-20T09:17:52;0.70;99.20
47310;DHT22;33046;52.270;6.832;2022-11-20T09:19:59;0.80;99.20
47310;DHT22;33046;52.270;6.832;2022-11-20T09:22:06;0.80;99.10
47310;DHT22;33046;52.270;6.832;2022-11-20T09:24:13;0.90;99.20
47310;DHT22;33046;52.270;6.832;2022-11-20T09:26:20;0.90;99.40
47310;DHT22;33046;52.270;6.832;2022-11-20T09:28:26;0.90;99.60
47310;DHT22;33046;52.270;6.832;2022-11-20T09:30:33;1.00;99.50
47310;DHT22;33046;52.270;6.832;2022-11-20T09:32:40;1.00;99.40
47310;DHT22;33046;52.270;6.832;2022-11-20T09:34:49;1.10;99.30
47310;DHT22;33046;52.270;6.832;2022-11-20T09:36:55;1.10;99.30
47310;DHT22;33046;52.270;6.832;2022-11-20T09:39:02;1.10;99.30
47310;DHT22;33046;52.270;6.832;2022-11-20T09:41:24;1.20;99.30
47310;DHT22;33046;52.270;6.832;2022-11-20T09:43:42;1.20;99.20
47310;DHT22;33046;52.270;6.832;2022-11-20T09:46:03;1.30;99.10
47310;DHT22;33046;52.270;6.832;2022-11-20T09:48:25;1.30;99.00
47310;DHT22;33046;52.270;6.832;2022-11-20T09:50:38;1.40;99.00
47310;DHT22;33046;52.270;6.832;2022-11-20T09:52:59;1.50;98.90
47310;DHT22;33046;52.270;6.832;2022-11-20T09:55:10;1.50;98.80
47310;DHT22;33046;52.270;6.832;2022-11-20T09:57:20;1.50;99.00
47310;DHT22;33046;52.270;6.832;2022-11-20T09:59:33;1.50;99.40
47310;DHT22;33046;52.270;6.832;2022-11-20T10:01:41;1.60;99.20
47310;DHT22;33046;52.270;6.832;2022-11-20T10:03:55;1.60;99.10
47310;DHT22;33046;52.270;6.832;2022-11-20T10:06:08;1.70;99.20
47310;DHT22;33046;52.270;6.832;2022-11-20T10:08:21;1.70;99.10
47310;DHT22;33046;52.270;6.832;2022-11-20T10:10:33;1.80;99.10
47310;DHT22;33046;52.270;6.832;2022-11-20T10:12:56;1.80;98.90
47310;DHT22;33046;52.270;6.832;2022-11-20T10:15:12;1.80;98.80
47310;DHT22;33046;52.270;6.832;2022-11-20T10:17:40;1.90;99.10
47310;DHT22;33046;52.270;6.832;2022-11-20T10:20:06;1.90;98.90
47310;DHT22;33046;52.270;6.832;2022-11-20T10:22:26;2.00;99.20
47310;DHT22;33046;52.270;6.832;2022-11-20T10:24:51;2.00;99.00
47310;DHT22;33046;52.270;6.832;2022-11-20T10:27:00;2.10;98.80
47310;DHT22;33046;52.270;6.832;2022-11-20T10:29:13;2.10;99.20
47310;DHT22;33046;52.270;6.832;2022-11-20T10:31:28;2.10;99.20
47310;DHT22;33046;52.270;6.832;2022-11-20T10:33:40;2.20;99.50
47310;DHT22;33046;52.270;6.832;2022-11-20T10:36:01;2.30;99.90
47310;DHT22;33046;52.270;6.832;2022-11-20T10:38:19;2.30;99.90
47310;DHT22;33046;52.270;6.832;2022-11-20T10:40:32;2.40;99.90
47310;DHT22;33046;52.270;6.832;2022-11-20T10:42:43;2.40;99.90
47310;DHT22;33046;52.270;6.832;2022-11-20T10:44:55;2.50;99.90
47310;DHT22;33046;52.270;6.832;2022-11-20T10:47:13;2.50;99.90
47310;DHT22;33046;52.270;6.832;2022-11-20T10:49:20;2.60;99.90
47310;DHT22;33046;52.270;6.832;2022-11-20T10:51:35;2.60;99.90
47310;DHT22;33046;52.270;6.832;2022-11-20T10:53:53;2.70;99.90
47310;DHT22;33046;52.270;6.832;2022-11-20T10:56:05;2.70;99.90
47310;DHT22;33046;52.270;6.832;2022-11-20T10:58:18;2.70;99.70
47310;DHT22;33046;52.270;6.832;2022-11-20T11:00:30;2.70;99.50
47310;DHT22;33046;52.270;6.832;2022-11-20T11:02:40;2.80;99.50
47310;DHT22;33046;52.270;6.832;2022-11-20T11:04:49;2.80;99.40
47310;DHT22;33046;52.270;6.832;2022-11-20T11:07:01;2.80;99.20
47310;DHT22;33046;52.270;6.832;2022-11-20T11:09:14;2.80;99.40
47310;DHT22;33046;52.270;6.832;2022-11-20T11:11:32;2.80;99.30
47310;DHT22;33046;52.270;6.832;2022-11-20T11:13:39;2.80;99.00
47310;DHT22;33046;52.270;6.832;2022-11-20T11:15:46;2.80;99.20
47310;DHT22;33046;52.270;6.832;2022-11-20T11:17:53;2.80;98.90
47310;DHT22;33046;52.270;6.832;2022-11-20T11:20:05;2.70;98.80
47310;DHT22;33046;52.270;6.832;2022-11-20T11:22:16;2.80;98.90
47310;DHT22;33046;52.270;6.832;2022-11-20T11:24:27;2.80;99.00
47310;DHT22;33046;52.270;6.832;2022-11-20T11:26:56;2.80;99.00
47310;DHT22;33046;52.270;6.832;2022-11-20T11:29:04;2.80;99.20
47310;DHT22;33046;52.270;6.832;2022-11-20T11:31:22;2.80;99.20
47310;DHT22;33046;52.270;6.832;2022-11-20T11:33:30;2.80;99.60
47310;DHT22;33046;52.270;6.832;2022-11-20T11:35:44;2.90;99.60
47310;DHT22;33046;52.270;6.832;2022-11-20T11:38:02;2.90;99.50
47310;DHT22;33046;52.270;6.832;2022-11-20T11:40:11;3.00;99.50
47310;DHT22;33046;52.270;6.832;2022-11-20T11:42:33;3.00;99.70
47310;DHT22;33046;52.270;6.832;2022-11-20T11:44:44;3.00;99.60
47310;DHT22;33046;52.270;6.832;2022-11-20T11:46:53;3.10;99.60
47310;DHT22;33046;52.270;6.832;2022-11-20T11:49:09;3.10;99.60
47310;DHT22;33046;52.270;6.832;2022-11-20T11:51:20;3.20;99.90
47310;DHT22;33046;52.270;6.832;2022-11-20T11:53:27;3.30;99.90
47310;DHT22;33046;52.270;6.832;2022-11-20T11:55:40;3.30;99.90
47310;DHT22;33046;52.270;6.832;2022-11-20T11:57:52;3.40;99.90
47310;DHT22;33046;52.270;6.832;2022-11-20T12:00:03;3.30;99.90
47310;DHT22;33046;52.270;6.832;2022-11-20T12:02:21;3.40;99.90
47310;DHT22;33046;52.270;6.832;2022-11-20T12:04:41;3.50;99.90
47310;DHT22;33046;52.270;6.832;2022-11-20T12:06:53;3.50;99.90
47310;DHT22;33046;52.270;6.832;2022-11-20T12:09:05;3.60;99.90
47310;DHT22;33046;52.270;6.832;2022-11-20T12:11:19;3.60;99.90
47310;DHT22;33046;52.270;6.832;2022-11-20T12:13:37;3.70;99.90
47310;DHT22;33046;52.270;6.832;2022-11-20T12:15:47;3.70;99.90
47310;DHT22;33046;52.270;6.832;2022-11-20T12:17:54;3.70;99.90
47310;DHT22;33046;52.270;6.832;2022-11-20T12:20:01;3.70;99.90
47310;DHT22;33046;52.270;6.832;2022-11-20T12:22:17;3.80;99.90
47310;DHT22;33046;52.270;6.832;2022-11-20T12:24:42;3.70;99.90
47310;DHT22;33046;52.270;6.832;2022-11-20T12:27:05;3.70;99.90
47310;DHT22;33046;52.270;6.832;2022-11-20T12:29:28;3.70;99.90
47310;DHT22;33046;52.270;6.832;2022-11-20T12:31:52;3.80;99.90
47310;DHT22;33046;52.270;6.832;2022-11-20T12:34:28;3.70;99.90
47310;DHT22;33046;52.270;6.832;2022-11-20T12:36:43;3.80;99.90
47310;DHT22;33046;52.270;6.832;2022-11-20T12:39:55;3.80;99.90
47310;DHT22;33046;52.270;6.832;2022-11-20T12:42:18;3.80;99.90
47310;DHT22;33046;52.270;6.832;2022-11-20T12:44:43;3.80;99.90
47310;DHT22;33046;52.270;6.832;2022-11-20T12:46:58;3.90;99.90
47310;DHT22;33046;52.270;6.832;2022-11-20T12:49:23;3.90;99.90
47310;DHT22;33046;52.270;6.832;2022-11-20T12:51:47;3.90;99.90
47310;DHT22;33046;52.270;6.832;2022-11-20T12:54:11;4.00;99.90
47310;DHT22;33046;52.270;6.832;2022-11-20T12:56:31;4.00;99.90
47310;DHT22;33046;52.270;6.832;2022-11-20T12:58:46;4.00;99.90
47310;DHT22;33046;52.270;6.832;2022-11-20T13:00:58;4.10;99.90
47310;DHT22;33046;52.270;6.832;2022-11-20T13:05:46;4.10;99.90
47310;DHT22;33046;52.270;6.832;2022-11-20T13:07:58;4.10;99.90
47310;DHT22;33046;52.270;6.832;2022-11-20T13:10:15;4.10;99.90
47310;DHT22;33046;52.270;6.832;2022-11-20T13:12:31;4.10;99.90
47310;DHT22;33046;52.270;6.832;2022-11-20T13:14:44;4.20;99.90
47310;DHT22;33046;52.270;6.832;2022-11-20T13:16:54;4.20;99.90
47310;DHT22;33046;52.270;6.832;2022-11-20T13:19:10;4.20;99.90
47310;DHT22;33046;52.270;6.832;2022-11-20T13:21:20;4.20;99.90
47310;DHT22;33046;52.270;6.832;2022-11-20T13:23:27;4.20;99.90
47310;DHT22;33046;52.270;6.832;2022-11-20T13:25:36;4.20;99.90
47310;DHT22;33046;52.270;6.832;2022-11-20T13:27:48;4.20;99.90
47310;DHT22;33046;52.270;6.832;2022-11-20T13:30:00;4.20;99.90
47310;DHT22;33046;52.270;6.832;2022-11-20T13:32:14;4.20;99.90
47310;DHT22;33046;52.270;6.832;2022-11-20T13:34:24;4.20;99.90
47310;DHT22;33046;52.270;6.832;2022-11-20T13:36:31;4.30;99.90
47310;DHT22;33046;52.270;6.832;2022-11-20T13:38:44;4.20;99.90
47310;DHT22;33046;52.270;6.832;2022-11-20T13:40:52;4.20;99.90
47310;DHT22;33046;52.270;6.832;2022-11-20T13:43:11;4.20;99.90
47310;DHT22;33046;52.270;6.832;2022-11-20T13:45:24;4.20;99.90
47310;DHT22;33046;52.270;6.832;2022-11-20T13:47:31;4.20;99.90
47310;DHT22;33046;52.270;6.832;2022-11-20T13:49:39;4.10;99.90
47310;DHT22;33046;52.270;6.832;2022-11-20T13:51:51;4.20;99.90